Time;durP1;ratioP1;P1;durP2;ratioP2;P2;SDS_P1;SDS_P2;PMS_P1;PMS_P2;Temp;Humidity;BMP_temperature;BMP_pressure;BME280_temperature;BME280_humidity;BME280_pressure;Samples;Min_cycle;Max_cycle;Signal;HPM_P1;HPM_P2
2022/11/02 00:00:26;;;;;;;36.78;17.13;;;;;;;;;;6356908;22;20217;-90
2022/11/02 00:03:33;;;;;;;43.42;17.25;;;;;;;;;;6355963;22;20191;-92
2022/11/02 00:06:38;;;;;;;130.65;17.80;;;;;;;;;;6357044;22;20217;-92
2022/11/02 00:09:43;;;;;;;54.58;17.48;;;;;;;;;;6358291;22;20169;-90
2022/11/02 00:12:48;;;;;;;66.32;17.95;;;;;;;;;;6356768;22;20210;-89
2022/11/02 00:15:54;;;;;;;282.23;21.13;;;;;;;;;;6357591;22;20188;-92
2022/11/02 00:19:02;;;;;;;83.55;17.85;;;;;;;;;;6356875;22;20210;-90
2022/11/02 00:22:08;;;;;;;115.90;18.00;;;;;;;;;;6354633;22;20171;-91
2022/11/02 00:25:15;;;;;;;115.10;17.13;;;;;;;;;;6354872;22;20654;-91
2022/11/02 00:28:21;;;;;;;69.15;15.75;;;;;;;;;;6355391;22;20167;-91
2022/11/02 00:31:26;;;;;;;104.90;15.65;;;;;;;;;;6354770;22;20483;-90
2022/11/02 00:34:33;;;;;;;85.63;16.30;;;;;;;;;;6354363;22;20228;-92
2022/11/02 00:37:38;;;;;;;93.28;16.70;;;;;;;;;;6355207;22;20638;-94
2022/11/02 00:40:43;;;;;;;429.73;23.75;;;;;;;;;;6355206;22;20173;-91
2022/11/02 00:43:50;;;;;;;236.70;18.27;;;;;;;;;;6355274;22;20230;-91
2022/11/02 00:50:39;;;;;;;221.25;19.58;;;;;;;;;;6355598;22;20168;-91
2022/11/02 00:53:44;;;;;;;110.68;15.93;;;;;;;;;;6355432;22;20216;-92
2022/11/02 00:56:49;;;;;;;222.35;18.85;;;;;;;;;;6354822;22;20163;-91
2022/11/02 00:59:54;;;;;;;87.65;16.42;;;;;;;;;;6354696;22;20203;-90
2022/11/02 01:03:01;;;;;;;134.65;17.00;;;;;;;;;;6355364;22;20173;-90
2022/11/02 01:06:12;;;;;;;55.85;15.95;;;;;;;;;;6353568;22;20242;-92
2022/11/02 01:09:16;;;;;;;78.53;15.88;;;;;;;;;;6354669;22;20173;-93
2022/11/02 01:12:22;;;;;;;96.82;16.23;;;;;;;;;;6352443;22;20519;-93
2022/11/02 01:15:27;;;;;;;56.33;14.52;;;;;;;;;;6350988;22;20188;-90
2022/11/02 01:18:32;;;;;;;136.48;16.48;;;;;;;;;;6351900;22;20195;-90
2022/11/02 01:21:39;;;;;;;65.28;14.25;;;;;;;;;;6351569;22;20197;-91
2022/11/02 01:24:44;;;;;;;97.07;14.00;;;;;;;;;;6352971;22;20206;-92
2022/11/02 01:27:49;;;;;;;82.05;14.60;;;;;;;;;;6353375;22;20227;-91
2022/11/02 01:30:54;;;;;;;67.10;14.68;;;;;;;;;;6351910;22;20295;-90
2022/11/02 01:33:59;;;;;;;55.15;14.00;;;;;;;;;;6351542;22;20183;-92
2022/11/02 01:37:06;;;;;;;70.88;15.50;;;;;;;;;;6354005;22;20152;-92
2022/11/02 01:40:11;;;;;;;127.07;15.65;;;;;;;;;;6352540;22;20194;-91
2022/11/02 01:43:21;;;;;;;129.32;16.30;;;;;;;;;;6353194;22;20177;-91
2022/11/02 01:46:54;;;;;;;103.43;15.70;;;;;;;;;;6353676;22;20174;-91
2022/11/02 01:50:02;;;;;;;72.20;14.68;;;;;;;;;;6353288;22;20621;-92
2022/11/02 01:53:12;;;;;;;65.07;13.57;;;;;;;;;;6353653;22;20176;-90
2022/11/02 01:56:19;;;;;;;82.75;12.82;;;;;;;;;;6354333;22;20167;-92
2022/11/02 01:59:30;;;;;;;83.13;13.35;;;;;;;;;;6354096;22;20223;-89
2022/11/02 02:02:38;;;;;;;52.45;13.35;;;;;;;;;;6354043;22;20187;-92
2022/11/02 02:05:50;;;;;;;57.33;12.95;;;;;;;;;;6354109;22;20260;-93
2022/11/02 02:09:01;;;;;;;46.78;11.90;;;;;;;;;;6354166;22;20187;-91
2022/11/02 02:12:08;;;;;;;46.65;13.13;;;;;;;;;;6354172;22;20618;-94
2022/11/02 02:15:13;;;;;;;41.60;11.95;;;;;;;;;;6353190;22;20242;-91
2022/11/02 02:18:22;;;;;;;113.93;13.23;;;;;;;;;;6354337;22;20171;-91
2022/11/02 02:21:33;;;;;;;49.25;12.73;;;;;;;;;;6353715;22;20172;-90
2022/11/02 02:24:50;;;;;;;61.20;12.60;;;;;;;;;;6354672;22;20192;-92
2022/11/02 02:28:04;;;;;;;48.97;11.90;;;;;;;;;;6353820;22;20492;-90
2022/11/02 02:31:15;;;;;;;43.58;11.38;;;;;;;;;;6352729;22;20164;-89
2022/11/02 02:34:21;;;;;;;32.47;11.43;;;;;;;;;;6350581;22;20165;-92
2022/11/02 02:37:30;;;;;;;36.35;12.15;;;;;;;;;;6354411;22;20667;-90
2022/11/02 02:40:37;;;;;;;90.22;13.25;;;;;;;;;;6352984;22;20172;-93
2022/11/02 02:43:46;;;;;;;63.70;11.32;;;;;;;;;;6350052;22;20555;-90
2022/11/02 02:47:26;;;;;;;110.68;13.13;;;;;;;;;;6351646;22;20183;-91
2022/11/02 02:50:36;;;;;;;90.90;12.77;;;;;;;;;;6351687;22;20202;-92
2022/11/02 02:53:44;;;;;;;127.20;12.40;;;;;;;;;;6352055;22;20180;-92
2022/11/02 02:56:51;;;;;;;90.05;13.48;;;;;;;;;;6349758;22;20268;-90
2022/11/02 02:59:58;;;;;;;86.95;13.13;;;;;;;;;;6353406;22;20238;-93
2022/11/02 03:03:04;;;;;;;35.53;10.85;;;;;;;;;;6351984;22;20172;-91
2022/11/02 03:06:16;;;;;;;50.72;10.93;;;;;;;;;;6353474;22;20167;-91
2022/11/02 03:09:30;;;;;;;53.90;11.35;;;;;;;;;;6353163;22;20169;-92
2022/11/02 03:12:46;;;;;;;60.65;10.75;;;;;;;;;;6351934;22;20157;-91
2022/11/02 03:16:00;;;;;;;34.80;9.77;;;;;;;;;;6353573;22;20207;-91
2022/11/02 03:19:12;;;;;;;73.60;11.07;;;;;;;;;;6353439;22;20180;-90
2022/11/02 03:22:21;;;;;;;57.35;10.77;;;;;;;;;;6354657;22;20199;-90
2022/11/02 03:25:30;;;;;;;53.55;10.68;;;;;;;;;;6353763;22;20188;-91
2022/11/02 03:28:43;;;;;;;41.20;10.15;;;;;;;;;;6353968;22;20168;-91
2022/11/02 03:31:55;;;;;;;26.75;11.25;;;;;;;;;;6354911;22;20176;-90
2022/11/02 03:35:04;;;;;;;42.22;11.23;;;;;;;;;;6353244;22;20669;-91
2022/11/02 03:38:14;;;;;;;29.60;10.18;;;;;;;;;;6354491;22;20202;-90
2022/11/02 03:41:20;;;;;;;30.10;10.40;;;;;;;;;;6353570;22;20213;-90
2022/11/02 03:44:29;;;;;;;27.10;10.13;;;;;;;;;;6352492;22;20188;-93
2022/11/02 03:47:37;;;;;;;25.95;10.45;;;;;;;;;;6353333;22;20160;-92
2022/11/02 03:50:49;;;;;;;25.30;10.05;;;;;;;;;;6352305;22;20171;-90
2022/11/02 03:53:59;;;;;;;98.40;10.90;;;;;;;;;;6351050;22;20168;-89
2022/11/02 03:57:08;;;;;;;67.28;11.15;;;;;;;;;;6352322;22;20241;-90
2022/11/02 04:00:15;;;;;;;116.53;12.85;;;;;;;;;;6351463;22;20217;-92
2022/11/02 04:03:24;;;;;;;24.13;10.10;;;;;;;;;;6351778;22;20176;-91
2022/11/02 04:06:32;;;;;;;29.35;10.07;;;;;;;;;;6352797;22;20165;-90
2022/11/02 04:09:38;;;;;;;32.45;10.57;;;;;;;;;;6352156;22;20184;-89
2022/11/02 04:16:07;;;;;;;34.88;9.88;;;;;;;;;;6352310;22;20253;-91
2022/11/02 04:19:28;;;;;;;37.13;10.32;;;;;;;;;;6352304;22;20165;-90
2022/11/02 04:26:06;;;;;;;34.17;9.95;;;;;;;;;;6353712;22;20274;-93
2022/11/02 04:29:19;;;;;;;26.55;10.52;;;;;;;;;;6352999;22;20165;-91
2022/11/02 04:35:50;;;;;;;22.02;10.20;;;;;;;;;;6335891;22;20229;-90
2022/11/02 04:38:57;;;;;;;21.58;10.50;;;;;;;;;;6352258;22;20234;-89
2022/11/02 04:42:09;;;;;;;23.90;10.18;;;;;;;;;;6352809;22;20165;-89
2022/11/02 04:45:17;;;;;;;22.45;10.05;;;;;;;;;;6354213;22;20188;-90
2022/11/02 04:48:25;;;;;;;19.20;9.52;;;;;;;;;;6353404;22;20169;-91
2022/11/02 04:51:32;;;;;;;23.00;10.00;;;;;;;;;;6354064;22;20184;-91
2022/11/02 04:54:37;;;;;;;18.55;9.40;;;;;;;;;;6354364;22;20161;-89
2022/11/02 04:57:45;;;;;;;21.38;9.45;;;;;;;;;;6353864;22;20184;-90
2022/11/02 05:00:56;;;;;;;19.42;9.77;;;;;;;;;;6353736;22;20215;-91
2022/11/02 05:04:02;;;;;;;20.75;9.38;;;;;;;;;;6353546;22;20169;-89
2022/11/02 05:07:12;;;;;;;14.82;8.35;;;;;;;;;;6354465;22;20176;-90
2022/11/02 05:10:17;;;;;;;17.95;8.52;;;;;;;;;;6353668;22;20521;-92
2022/11/02 05:13:25;;;;;;;15.05;8.55;;;;;;;;;;6354275;22;20152;-91
2022/11/02 05:16:30;;;;;;;16.48;8.80;;;;;;;;;;6355210;22;20200;-91
2022/11/02 05:19:38;;;;;;;18.40;9.90;;;;;;;;;;6354310;22;20180;-92
2022/11/02 05:22:45;;;;;;;20.90;9.57;;;;;;;;;;6355078;22;20183;-89
2022/11/02 05:25:56;;;;;;;15.63;8.73;;;;;;;;;;6354876;22;20193;-91
2022/11/02 05:29:02;;;;;;;18.95;10.05;;;;;;;;;;6355039;22;20235;-91
2022/11/02 05:32:08;;;;;;;18.10;8.75;;;;;;;;;;6355196;22;20172;-90
2022/11/02 05:38:37;;;;;;;32.10;11.75;;;;;;;;;;6356528;22;20169;-91
2022/11/02 05:41:43;;;;;;;21.30;10.07;;;;;;;;;;6354255;22;20214;-89
2022/11/02 05:44:49;;;;;;;18.88;10.80;;;;;;;;;;6355508;22;20191;-90
2022/11/02 05:47:54;;;;;;;19.38;10.00;;;;;;;;;;6355016;22;20191;-91
2022/11/02 05:51:03;;;;;;;23.20;11.15;;;;;;;;;;6355201;22;20168;-90
2022/11/02 05:54:09;;;;;;;18.42;9.77;;;;;;;;;;6354585;22;20168;-90
2022/11/02 05:57:15;;;;;;;23.15;10.35;;;;;;;;;;6353772;22;20176;-90
2022/11/02 06:00:21;;;;;;;18.02;9.85;;;;;;;;;;6355086;22;20215;-90
2022/11/02 06:03:27;;;;;;;20.45;9.63;;;;;;;;;;6353393;22;20163;-91
2022/11/02 06:06:32;;;;;;;21.10;10.05;;;;;;;;;;6354354;22;20231;-88
2022/11/02 06:09:41;;;;;;;22.25;9.68;;;;;;;;;;6353147;22;20168;-89
2022/11/02 06:12:51;;;;;;;20.33;9.63;;;;;;;;;;6352267;22;20173;-90
2022/11/02 06:15:59;;;;;;;20.13;10.45;;;;;;;;;;6356079;22;20188;-90
2022/11/02 06:19:05;;;;;;;17.02;9.15;;;;;;;;;;6356463;22;20697;-89
2022/11/02 06:22:10;;;;;;;16.80;8.55;;;;;;;;;;6355046;22;20180;-89
2022/11/02 06:25:19;;;;;;;18.85;10.27;;;;;;;;;;6356557;22;20234;-88
2022/11/02 06:28:25;;;;;;;20.38;9.75;;;;;;;;;;6353550;22;20250;-89
2022/11/02 06:31:31;;;;;;;17.05;8.55;;;;;;;;;;6350809;22;20227;-88
2022/11/02 06:34:36;;;;;;;20.77;9.50;;;;;;;;;;6356395;22;20173;-90
2022/11/02 06:37:42;;;;;;;16.20;9.68;;;;;;;;;;6357763;22;20225;-87
2022/11/02 06:40:56;;;;;;;20.13;9.35;;;;;;;;;;6354410;22;20168;-88
2022/11/02 06:44:02;;;;;;;20.50;9.10;;;;;;;;;;6355344;22;20183;-88
2022/11/02 06:47:07;;;;;;;18.27;9.27;;;;;;;;;;6355094;22;20172;-88
2022/11/02 06:50:24;;;;;;;23.92;8.80;;;;;;;;;;6355510;22;20177;-87
2022/11/02 06:53:29;;;;;;;18.10;8.23;;;;;;;;;;6355658;22;20177;-88
2022/11/02 06:56:37;;;;;;;15.93;9.02;;;;;;;;;;6357120;22;20165;-88
2022/11/02 07:03:02;;;;;;;12.30;7.30;;;;;;;;;;6357800;22;20202;-90
2022/11/02 07:06:08;;;;;;;13.80;7.28;;;;;;;;;;6359731;22;20200;-89
2022/11/02 07:12:35;;;;;;;13.85;7.72;;;;;;;;;;6359736;22;20188;-90
2022/11/02 07:19:00;;;;;;;18.00;7.15;;;;;;;;;;6359657;22;20149;-88
2022/11/02 07:22:06;;;;;;;23.98;8.27;;;;;;;;;;6357389;22;20218;-90
2022/11/02 07:25:26;;;;;;;20.73;7.72;;;;;;;;;;6359218;22;20215;-90
2022/11/02 07:28:36;;;;;;;15.35;8.15;;;;;;;;;;6358793;22;20159;-92
2022/11/02 07:31:43;;;;;;;19.27;9.07;;;;;;;;;;6359242;22;20168;-91
2022/11/02 07:34:49;;;;;;;27.42;8.35;;;;;;;;;;6357179;22;20172;-89
2022/11/02 07:37:55;;;;;;;21.38;8.30;;;;;;;;;;6355557;22;20183;-91
2022/11/02 07:41:00;;;;;;;17.67;7.97;;;;;;;;;;6356208;22;20507;-91
2022/11/02 07:44:07;;;;;;;16.70;8.07;;;;;;;;;;6356042;22;20183;-91
2022/11/02 07:47:32;;;;;;;14.27;8.70;;;;;;;;;;6355364;22;20172;-91
2022/11/02 07:50:37;;;;;;;18.92;8.40;;;;;;;;;;6354922;22;20164;-91
2022/11/02 07:53:43;;;;;;;14.25;7.93;;;;;;;;;;6353372;22;20240;-88
2022/11/02 07:56:48;;;;;;;17.50;8.02;;;;;;;;;;6351784;22;20168;-91
2022/11/02 07:59:58;;;;;;;17.30;9.05;;;;;;;;;;6353296;22;20173;-88
2022/11/02 08:03:05;;;;;;;16.45;8.32;;;;;;;;;;6355454;22;20233;-89
2022/11/02 08:06:10;;;;;;;20.25;8.55;;;;;;;;;;6354015;22;20321;-91
2022/11/02 08:09:16;;;;;;;14.35;8.68;;;;;;;;;;6354052;22;20172;-91
2022/11/02 08:12:24;;;;;;;23.55;9.65;;;;;;;;;;6354772;22;20169;-90
2022/11/02 08:15:30;;;;;;;19.67;9.52;;;;;;;;;;6353985;22;20203;-91
2022/11/02 08:18:36;;;;;;;16.27;9.00;;;;;;;;;;6356286;22;20188;-92
2022/11/02 08:21:42;;;;;;;23.02;10.82;;;;;;;;;;6356076;22;20173;-91
2022/11/02 08:24:48;;;;;;;17.58;8.57;;;;;;;;;;6356577;22;20173;-91
2022/11/02 08:27:57;;;;;;;17.23;8.75;;;;;;;;;;6358952;22;20254;-89
2022/11/02 08:31:06;;;;;;;24.20;9.73;;;;;;;;;;6357865;22;20164;-90
2022/11/02 08:37:30;;;;;;;19.63;9.43;;;;;;;;;;6358497;22;20163;-90
2022/11/02 08:47:30;;;;;;;43.50;13.77;;;;;;;;;;6358586;22;20524;-89
2022/11/02 08:50:38;;;;;;;23.20;10.40;;;;;;;;;;6356506;22;20157;-89
2022/11/02 08:53:43;;;;;;;25.20;11.05;;;;;;;;;;6358091;22;20168;-92
2022/11/02 08:56:49;;;;;;;24.55;10.32;;;;;;;;;;6356916;22;20164;-91
2022/11/02 08:59:54;;;;;;;22.40;10.68;;;;;;;;;;6356500;22;20191;-90
2022/11/02 09:03:01;;;;;;;25.48;10.73;;;;;;;;;;6357292;22;20175;-90
2022/11/02 16:27:26;;;;;;;12.77;5.35;;;;;;;;;;6115477;22;20347;-85
2022/11/02 16:30:35;;;;;;;32.00;10.27;;;;;;;;;;6356991;22;20173;-86
2022/11/02 16:33:42;;;;;;;16.63;6.70;;;;;;;;;;6353958;22;20181;-87
2022/11/02 16:36:48;;;;;;;16.48;6.45;;;;;;;;;;6350330;22;20405;-87
2022/11/02 16:39:54;;;;;;;18.95;5.45;;;;;;;;;;6351240;22;20242;-87
2022/11/02 16:43:01;;;;;;;12.13;5.40;;;;;;;;;;6349766;22;20171;-87
2022/11/02 16:46:08;;;;;;;14.60;6.03;;;;;;;;;;6349368;22;20243;-88
2022/11/02 16:49:15;;;;;;;18.48;5.60;;;;;;;;;;6350513;22;20172;-86
2022/11/02 16:52:22;;;;;;;15.45;5.32;;;;;;;;;;6352357;22;20172;-87
2022/11/02 16:55:30;;;;;;;16.45;7.03;;;;;;;;;;6353840;22;20180;-86
2022/11/02 16:58:37;;;;;;;16.48;7.40;;;;;;;;;;6353380;22;20199;-86
2022/11/02 17:01:48;;;;;;;18.60;7.15;;;;;;;;;;6355401;22;20215;-87
2022/11/02 17:04:57;;;;;;;11.10;5.38;;;;;;;;;;6348142;22;20163;-86
2022/11/02 17:08:04;;;;;;;16.95;6.10;;;;;;;;;;6348094;22;20206;-86
2022/11/02 17:11:14;;;;;;;12.55;6.05;;;;;;;;;;6315113;22;20169;-86
2022/11/02 17:14:21;;;;;;;16.13;5.55;;;;;;;;;;6316423;22;20169;-86
2022/11/02 17:17:36;;;;;;;12.15;5.95;;;;;;;;;;6317241;22;20392;-86
2022/11/02 17:20:42;;;;;;;12.95;6.05;;;;;;;;;;6316872;22;20256;-86
2022/11/02 17:23:48;;;;;;;16.95;6.85;;;;;;;;;;6316082;22;20169;-85
2022/11/02 17:27:15;;;;;;;22.63;7.65;;;;;;;;;;6315781;22;20192;-87
2022/11/02 17:30:39;;;;;;;17.50;6.70;;;;;;;;;;6318123;22;20520;-86
2022/11/02 17:33:47;;;;;;;17.27;7.22;;;;;;;;;;6315153;22;20283;-87
2022/11/02 17:36:53;;;;;;;13.95;6.53;;;;;;;;;;6321566;22;20188;-85
2022/11/02 17:40:01;;;;;;;15.13;5.85;;;;;;;;;;6329558;22;20172;-87
2022/11/02 17:43:07;;;;;;;17.27;6.93;;;;;;;;;;6326397;22;20205;-86
2022/11/02 17:46:12;;;;;;;18.73;7.45;;;;;;;;;;6327627;22;20208;-85
2022/11/02 17:49:20;;;;;;;19.70;7.60;;;;;;;;;;6325168;22;20172;-87
2022/11/02 17:52:27;;;;;;;19.70;7.20;;;;;;;;;;6318861;22;20528;-85
2022/11/02 17:55:39;;;;;;;16.05;7.32;;;;;;;;;;6335592;22;20511;-85
2022/11/02 17:58:48;;;;;;;19.55;7.53;;;;;;;;;;6316797;22;20447;-85
2022/11/02 18:01:53;;;;;;;13.85;6.85;;;;;;;;;;6315311;22;20181;-85
2022/11/02 18:05:00;;;;;;;19.10;7.20;;;;;;;;;;6317941;22;20181;-86
2022/11/02 18:08:09;;;;;;;20.90;8.63;;;;;;;;;;6316965;22;20197;-85
2022/11/02 18:11:17;;;;;;;26.58;9.45;;;;;;;;;;6335029;22;20212;-88
2022/11/02 18:14:23;;;;;;;26.50;10.32;;;;;;;;;;6320044;22;20211;-86
2022/11/02 18:17:29;;;;;;;23.20;9.88;;;;;;;;;;6318685;22;20180;-87
2022/11/02 18:20:37;;;;;;;22.77;9.73;;;;;;;;;;6317562;22;20212;-86
2022/11/02 18:23:43;;;;;;;34.15;10.73;;;;;;;;;;6316060;22;20615;-85
2022/11/02 18:26:49;;;;;;;40.92;14.23;;;;;;;;;;6317442;22;20299;-85
2022/11/02 18:29:55;;;;;;;43.42;17.50;;;;;;;;;;6325290;22;20184;-85
2022/11/02 18:33:01;;;;;;;30.50;11.45;;;;;;;;;;6314516;22;20181;-85
2022/11/02 18:36:09;;;;;;;22.15;9.35;;;;;;;;;;6316909;22;20260;-85
2022/11/02 18:39:14;;;;;;;18.00;7.78;;;;;;;;;;6316923;22;20166;-86
2022/11/02 18:42:21;;;;;;;29.85;11.90;;;;;;;;;;6316478;22;20263;-85
2022/11/02 18:45:26;;;;;;;21.20;8.73;;;;;;;;;;6318651;22;20177;-86
2022/11/02 18:48:32;;;;;;;21.60;9.02;;;;;;;;;;6319693;22;20180;-86
2022/11/02 18:51:44;;;;;;;19.13;7.57;;;;;;;;;;6319127;22;20173;-85
2022/11/02 18:54:51;;;;;;;15.88;7.88;;;;;;;;;;6314894;22;20282;-86
2022/11/02 18:57:56;;;;;;;17.10;7.80;;;;;;;;;;6317080;22;20172;-86
2022/11/02 19:01:07;;;;;;;19.88;7.60;;;;;;;;;;6317688;22;20173;-86
2022/11/02 19:04:12;;;;;;;18.02;8.20;;;;;;;;;;6316953;22;20176;-86
2022/11/02 19:10:43;;;;;;;18.13;8.30;;;;;;;;;;6318199;22;20245;-85
2022/11/02 19:13:50;;;;;;;25.65;8.30;;;;;;;;;;6317818;22;20406;-86
2022/11/02 19:16:57;;;;;;;22.48;8.82;;;;;;;;;;6318468;22;20176;-85
2022/11/02 19:20:04;;;;;;;21.17;7.97;;;;;;;;;;6318010;22;20165;-85
2022/11/02 19:23:11;;;;;;;16.13;9.07;;;;;;;;;;6316240;22;20176;-86
2022/11/02 19:26:17;;;;;;;23.00;8.13;;;;;;;;;;6317129;22;20180;-86
2022/11/02 19:29:26;;;;;;;27.23;10.75;;;;;;;;;;6317988;22;20188;-87
2022/11/02 19:32:32;;;;;;;19.92;8.80;;;;;;;;;;6318116;22;20172;-87
2022/11/02 19:35:38;;;;;;;17.33;8.32;;;;;;;;;;6317552;22;20177;-85
2022/11/02 19:38:46;;;;;;;24.88;8.77;;;;;;;;;;6314345;22;20169;-86
2022/11/02 19:41:53;;;;;;;24.30;8.55;;;;;;;;;;6315507;22;20201;-86
2022/11/02 19:44:59;;;;;;;22.65;8.98;;;;;;;;;;6315661;22;20172;-86
2022/11/02 19:48:07;;;;;;;18.05;8.43;;;;;;;;;;6315296;22;20248;-87
2022/11/02 19:51:14;;;;;;;19.75;8.02;;;;;;;;;;6314376;22;20172;-85
2022/11/02 19:54:21;;;;;;;17.17;7.18;;;;;;;;;;6317432;22;20505;-86
2022/11/02 19:57:27;;;;;;;16.52;7.45;;;;;;;;;;6314274;22;20173;-86
2022/11/02 20:00:31;;;;;;;18.50;8.15;;;;;;;;;;6316343;22;20169;-85
2022/11/02 20:03:37;;;;;;;23.38;7.97;;;;;;;;;;6313267;22;20411;-85
2022/11/02 20:06:44;;;;;;;19.08;7.55;;;;;;;;;;6313721;22;20243;-87
2022/11/02 20:09:53;;;;;;;19.52;8.85;;;;;;;;;;6313531;22;20177;-86
2022/11/02 20:13:00;;;;;;;19.50;8.25;;;;;;;;;;6316462;22;20215;-86
2022/11/02 20:16:07;;;;;;;17.42;7.70;;;;;;;;;;6316751;22;20555;-86
2022/11/02 20:19:13;;;;;;;23.60;9.00;;;;;;;;;;6316564;22;20564;-85
2022/11/02 20:22:18;;;;;;;24.73;8.43;;;;;;;;;;6311953;22;20198;-86
2022/11/02 20:25:26;;;;;;;22.00;8.30;;;;;;;;;;6314934;22;20548;-87
2022/11/02 20:28:32;;;;;;;18.85;7.97;;;;;;;;;;6315579;22;20208;-84
2022/11/02 20:31:39;;;;;;;19.55;8.13;;;;;;;;;;6315247;22;20243;-86
2022/11/02 20:34:44;;;;;;;16.73;7.60;;;;;;;;;;6316153;22;20169;-85
2022/11/02 20:37:49;;;;;;;18.27;8.52;;;;;;;;;;6315564;22;20161;-86
2022/11/02 20:41:04;;;;;;;20.48;7.53;;;;;;;;;;6316121;22;20200;-86
2022/11/02 20:44:09;;;;;;;16.98;8.10;;;;;;;;;;6315741;22;20894;-86
2022/11/02 20:47:15;;;;;;;26.60;8.75;;;;;;;;;;6313529;22;20201;-86
2022/11/02 20:50:22;;;;;;;24.05;8.93;;;;;;;;;;6313197;22;20254;-86
2022/11/02 20:53:27;;;;;;;25.73;10.23;;;;;;;;;;6312319;22;20247;-87
2022/11/02 20:56:34;;;;;;;24.17;9.98;;;;;;;;;;6313343;22;20177;-86
2022/11/02 20:59:40;;;;;;;22.55;10.93;;;;;;;;;;6312567;22;20418;-86
2022/11/02 21:02:45;;;;;;;24.33;9.60;;;;;;;;;;6312728;22;20169;-86
2022/11/02 21:05:51;;;;;;;22.67;9.02;;;;;;;;;;6313243;22;20172;-86
2022/11/02 21:08:58;;;;;;;19.95;7.45;;;;;;;;;;6312801;22;20239;-86
2022/11/02 21:15:27;;;;;;;20.08;7.85;;;;;;;;;;6313438;22;20201;-86
2022/11/02 21:18:32;;;;;;;14.70;6.93;;;;;;;;;;6315282;22;20392;-86
2022/11/02 21:21:38;;;;;;;29.45;11.93;;;;;;;;;;6312617;22;20534;-86
2022/11/02 21:24:43;;;;;;;32.72;12.65;;;;;;;;;;6312351;22;20543;-86
2022/11/02 21:27:51;;;;;;;84.75;29.92;;;;;;;;;;6312883;22;20445;-85
2022/11/02 21:31:02;;;;;;;30.58;13.02;;;;;;;;;;6313195;22;20173;-86
2022/11/02 21:34:07;;;;;;;29.08;10.90;;;;;;;;;;6312247;22;20173;-84
2022/11/02 21:37:13;;;;;;;33.05;13.27;;;;;;;;;;6312560;22;20177;-87
2022/11/02 21:40:18;;;;;;;26.05;9.77;;;;;;;;;;6312595;22;20406;-85
2022/11/02 21:43:25;;;;;;;21.75;8.43;;;;;;;;;;6316449;22;20169;-84
2022/11/02 21:46:33;;;;;;;40.58;11.27;;;;;;;;;;6314514;22;20177;-86
2022/11/02 21:49:40;;;;;;;31.75;10.77;;;;;;;;;;6313005;22;20177;-86
2022/11/02 21:52:45;;;;;;;44.83;12.68;;;;;;;;;;6312977;22;20169;-87
2022/11/02 21:55:57;;;;;;;31.92;10.18;;;;;;;;;;6313877;22;20177;-87
2022/11/02 21:59:08;;;;;;;31.95;10.23;;;;;;;;;;6313334;22;20161;-86
2022/11/02 22:02:12;;;;;;;35.28;12.75;;;;;;;;;;6313628;22;20177;-86
2022/11/02 22:05:53;;;;;;;29.48;11.00;;;;;;;;;;6312510;22;20169;-87
2022/11/02 22:08:43;;;;;;;27.83;8.57;;;;;;;;;;6313577;22;20542;-86
2022/11/02 22:13:30;;;;;;;36.38;8.50;;;;;;;;;;6311841;22;20165;-86
2022/11/02 22:15:15;;;;;;;29.85;9.60;;;;;;;;;;6311791;22;20234;-86
2022/11/02 22:18:21;;;;;;;23.92;9.02;;;;;;;;;;6312360;22;20517;-86
2022/11/02 22:21:27;;;;;;;26.17;9.95;;;;;;;;;;6312994;22;20181;-86
2022/11/02 22:24:32;;;;;;;51.80;9.80;;;;;;;;;;6314727;22;20169;-86
2022/11/02 22:27:37;;;;;;;20.10;8.93;;;;;;;;;;6313292;22;20478;-85
2022/11/02 22:30:44;;;;;;;34.72;9.98;;;;;;;;;;6313204;22;20237;-86
2022/11/02 22:33:51;;;;;;;20.00;8.95;;;;;;;;;;6318965;22;20640;-85
2022/11/02 22:38:47;;;;;;;24.08;10.05;;;;;;;;;;6312539;22;20165;-86
2022/11/02 22:40:21;;;;;;;22.33;9.43;;;;;;;;;;6312915;22;20414;-85
2022/11/02 22:43:32;;;;;;;26.45;8.77;;;;;;;;;;6313482;22;20538;-84
2022/11/02 22:46:41;;;;;;;32.25;8.40;;;;;;;;;;6313999;22;20164;-87
2022/11/02 22:49:46;;;;;;;18.80;8.75;;;;;;;;;;6314116;22;20429;-85
2022/11/02 22:52:51;;;;;;;59.63;9.10;;;;;;;;;;6314319;22;20176;-85
2022/11/02 22:55:58;;;;;;;33.92;8.80;;;;;;;;;;6313164;22;20552;-86
2022/11/02 22:59:04;;;;;;;18.17;8.63;;;;;;;;;;6312967;22;20169;-85
2022/11/02 23:02:11;;;;;;;12.65;7.18;;;;;;;;;;6314873;22;20173;-85
2022/11/02 23:05:17;;;;;;;17.73;8.63;;;;;;;;;;6295692;22;20216;-86
2022/11/02 23:08:22;;;;;;;19.30;8.23;;;;;;;;;;6313610;22;20188;-86
2022/11/02 23:11:28;;;;;;;20.92;7.68;;;;;;;;;;6313273;22;20209;-86
2022/11/02 23:14:33;;;;;;;17.13;7.55;;;;;;;;;;6314411;22;20180;-86
2022/11/02 23:17:40;;;;;;;17.60;7.65;;;;;;;;;;6312253;22;20169;-86
2022/11/02 23:20:50;;;;;;;17.73;7.88;;;;;;;;;;6313820;22;20169;-86
2022/11/02 23:27:18;;;;;;;16.70;8.13;;;;;;;;;;6312100;22;20237;-87
2022/11/02 23:33:47;;;;;;;21.48;7.72;;;;;;;;;;6312171;22;20211;-86
2022/11/02 23:36:51;;;;;;;25.63;8.30;;;;;;;;;;6312358;22;20513;-87
2022/11/02 23:39:57;;;;;;;16.40;7.40;;;;;;;;;;6313326;22;20210;-86
2022/11/02 23:43:04;;;;;;;28.10;7.75;;;;;;;;;;6311930;22;20173;-86
2022/11/02 23:46:12;;;;;;;28.90;7.90;;;;;;;;;;6312857;22;20172;-86
2022/11/02 23:49:21;;;;;;;60.50;8.35;;;;;;;;;;6312590;22;20209;-87
2022/11/02 23:59:16;;;;;;;21.73;7.65;;;;;;;;;;6312287;22;20195;-85
